sensor_id;sensor_type;location;lat;lon;timestamp;P1;durP1;ratioP1;P2;durP2;ratioP2
2610;SDS011;5612;51.134;17.058;2023-02-28T00:00:21;37.03;;;27.27;;
2610;SDS011;5612;51.134;17.058;2023-02-28T00:02:52;38.00;;;28.97;;
2610;SDS011;5612;51.134;17.058;2023-02-28T00:05:22;39.30;;;28.63;;
2610;SDS011;5612;51.134;17.058;2023-02-28T00:07:52;39.70;;;28.57;;
2610;SDS011;5612;51.134;17.058;2023-02-28T00:10:23;38.07;;;29.30;;
2610;SDS011;5612;51.134;17.058;2023-02-28T00:12:53;46.93;;;30.27;;
2610;SDS011;5612;51.134;17.058;2023-02-28T00:15:24;44.80;;;30.80;;
2610;SDS011;5612;51.134;17.058;2023-02-28T00:17:54;40.67;;;29.00;;
2610;SDS011;5612;51.134;17.058;2023-02-28T00:20:23;37.87;;;27.63;;
2610;SDS011;5612;51.134;17.058;2023-02-28T00:22:53;34.30;;;25.83;;
2610;SDS011;5612;51.134;17.058;2023-02-28T00:25:23;44.07;;;29.20;;
2610;SDS011;5612;51.134;17.058;2023-02-28T00:27:53;39.63;;;27.47;;
2610;SDS011;5612;51.134;17.058;2023-02-28T00:30:22;36.20;;;26.57;;
2610;SDS011;5612;51.134;17.058;2023-02-28T00:32:52;37.27;;;27.80;;
2610;SDS011;5612;51.134;17.058;2023-02-28T00:35:22;42.90;;;28.20;;
2610;SDS011;5612;51.134;17.058;2023-02-28T00:37:51;37.20;;;28.33;;
2610;SDS011;5612;51.134;17.058;2023-02-28T00:40:20;41.00;;;28.53;;
2610;SDS011;5612;51.134;17.058;2023-02-28T00:42:49;35.80;;;25.37;;
2610;SDS011;5612;51.134;17.058;2023-02-28T00:45:17;36.67;;;26.73;;
2610;SDS011;5612;51.134;17.058;2023-02-28T00:47:46;33.77;;;23.10;;
2610;SDS011;5612;51.134;17.058;2023-02-28T00:50:16;30.30;;;23.13;;
2610;SDS011;5612;51.134;17.058;2023-02-28T00:52:47;29.50;;;23.40;;
2610;SDS011;5612;51.134;17.058;2023-02-28T00:55:16;30.50;;;22.47;;
2610;SDS011;5612;51.134;17.058;2023-02-28T00:57:45;33.97;;;24.50;;
2610;SDS011;5612;51.134;17.058;2023-02-28T01:00:14;35.00;;;22.43;;
2610;SDS011;5612;51.134;17.058;2023-02-28T01:02:43;33.17;;;24.20;;
2610;SDS011;5612;51.134;17.058;2023-02-28T01:05:12;33.87;;;23.00;;
2610;SDS011;5612;51.134;17.058;2023-02-28T01:07:44;31.07;;;22.50;;
2610;SDS011;5612;51.134;17.058;2023-02-28T01:10:14;32.37;;;24.53;;
2610;SDS011;5612;51.134;17.058;2023-02-28T01:12:44;33.20;;;22.27;;
2610;SDS011;5612;51.134;17.058;2023-02-28T01:15:12;30.10;;;23.30;;
2610;SDS011;5612;51.134;17.058;2023-02-28T01:17:41;41.03;;;23.90;;
2610;SDS011;5612;51.134;17.058;2023-02-28T01:20:10;30.83;;;23.53;;
2610;SDS011;5612;51.134;17.058;2023-02-28T01:22:40;29.23;;;22.53;;
2610;SDS011;5612;51.134;17.058;2023-02-28T01:25:09;34.17;;;23.73;;
2610;SDS011;5612;51.134;17.058;2023-02-28T01:27:39;30.83;;;22.20;;
2610;SDS011;5612;51.134;17.058;2023-02-28T01:30:08;30.20;;;23.23;;
2610;SDS011;5612;51.134;17.058;2023-02-28T01:32:38;34.83;;;20.80;;
2610;SDS011;5612;51.134;17.058;2023-02-28T01:35:07;34.40;;;22.40;;
2610;SDS011;5612;51.134;17.058;2023-02-28T01:37:36;36.87;;;23.17;;
2610;SDS011;5612;51.134;17.058;2023-02-28T01:40:06;33.30;;;23.20;;
2610;SDS011;5612;51.134;17.058;2023-02-28T01:42:35;31.73;;;22.57;;
2610;SDS011;5612;51.134;17.058;2023-02-28T01:45:14;32.97;;;21.60;;
2610;SDS011;5612;51.134;17.058;2023-02-28T01:47:50;31.13;;;22.87;;
2610;SDS011;5612;51.134;17.058;2023-02-28T01:50:23;35.43;;;24.40;;
2610;SDS011;5612;51.134;17.058;2023-02-28T01:52:57;28.60;;;22.80;;
2610;SDS011;5612;51.134;17.058;2023-02-28T01:55:29;30.27;;;22.30;;
2610;SDS011;5612;51.134;17.058;2023-02-28T01:58:00;34.70;;;23.70;;
2610;SDS011;5612;51.134;17.058;2023-02-28T02:00:33;34.87;;;22.73;;
2610;SDS011;5612;51.134;17.058;2023-02-28T02:03:05;34.37;;;23.70;;
2610;SDS011;5612;51.134;17.058;2023-02-28T02:05:37;35.50;;;23.80;;
2610;SDS011;5612;51.134;17.058;2023-02-28T02:08:09;36.70;;;22.83;;
2610;SDS011;5612;51.134;17.058;2023-02-28T02:10:41;33.73;;;22.90;;
2610;SDS011;5612;51.134;17.058;2023-02-28T02:13:34;31.07;;;22.47;;
2610;SDS011;5612;51.134;17.058;2023-02-28T02:16:36;32.37;;;21.80;;
2610;SDS011;5612;51.134;17.058;2023-02-28T02:19:15;28.87;;;23.53;;
2610;SDS011;5612;51.134;17.058;2023-02-28T02:22:21;30.33;;;22.83;;
2610;SDS011;5612;51.134;17.058;2023-02-28T02:25:10;39.23;;;24.70;;
2610;SDS011;5612;51.134;17.058;2023-02-28T02:27:48;32.00;;;22.20;;
2610;SDS011;5612;51.134;17.058;2023-02-28T02:30:33;32.77;;;23.70;;
2610;SDS011;5612;51.134;17.058;2023-02-28T02:36:19;26.23;;;22.07;;
2610;SDS011;5612;51.134;17.058;2023-02-28T02:38:51;29.13;;;21.50;;
2610;SDS011;5612;51.134;17.058;2023-02-28T02:41:28;31.57;;;21.90;;
2610;SDS011;5612;51.134;17.058;2023-02-28T02:44:06;31.80;;;22.63;;
2610;SDS011;5612;51.134;17.058;2023-02-28T02:46:41;29.00;;;21.87;;
2610;SDS011;5612;51.134;17.058;2023-02-28T02:49:16;35.40;;;22.10;;
2610;SDS011;5612;51.134;17.058;2023-02-28T02:51:49;34.50;;;25.00;;
2610;SDS011;5612;51.134;17.058;2023-02-28T02:54:20;32.13;;;23.00;;
2610;SDS011;5612;51.134;17.058;2023-02-28T02:56:55;38.17;;;23.63;;
2610;SDS011;5612;51.134;17.058;2023-02-28T02:59:28;29.97;;;22.60;;
2610;SDS011;5612;51.134;17.058;2023-02-28T03:02:01;29.43;;;21.80;;
2610;SDS011;5612;51.134;17.058;2023-02-28T03:04:34;34.73;;;23.00;;
2610;SDS011;5612;51.134;17.058;2023-02-28T03:07:11;30.70;;;22.20;;
2610;SDS011;5612;51.134;17.058;2023-02-28T03:09:40;27.67;;;20.50;;
2610;SDS011;5612;51.134;17.058;2023-02-28T03:12:18;30.20;;;22.43;;
2610;SDS011;5612;51.134;17.058;2023-02-28T03:14:51;31.23;;;22.30;;
2610;SDS011;5612;51.134;17.058;2023-02-28T03:17:40;27.40;;;21.50;;
2610;SDS011;5612;51.134;17.058;2023-02-28T03:20:27;28.83;;;20.83;;
2610;SDS011;5612;51.134;17.058;2023-02-28T03:23:07;30.47;;;22.77;;
2610;SDS011;5612;51.134;17.058;2023-02-28T03:25:46;25.60;;;20.93;;
2610;SDS011;5612;51.134;17.058;2023-02-28T03:28:27;30.17;;;22.37;;
2610;SDS011;5612;51.134;17.058;2023-02-28T03:31:01;30.70;;;21.83;;
2610;SDS011;5612;51.134;17.058;2023-02-28T03:33:37;26.77;;;20.60;;
2610;SDS011;5612;51.134;17.058;2023-02-28T03:36:10;29.40;;;24.20;;
2610;SDS011;5612;51.134;17.058;2023-02-28T03:38:49;31.37;;;21.10;;
2610;SDS011;5612;51.134;17.058;2023-02-28T03:41:31;27.33;;;22.63;;
2610;SDS011;5612;51.134;17.058;2023-02-28T03:44:09;28.13;;;21.87;;
2610;SDS011;5612;51.134;17.058;2023-02-28T03:46:47;33.40;;;22.27;;
2610;SDS011;5612;51.134;17.058;2023-02-28T03:49:25;32.67;;;22.17;;
2610;SDS011;5612;51.134;17.058;2023-02-28T03:52:02;36.70;;;22.17;;
2610;SDS011;5612;51.134;17.058;2023-02-28T03:54:37;30.83;;;20.97;;
2610;SDS011;5612;51.134;17.058;2023-02-28T03:57:10;29.77;;;21.00;;
2610;SDS011;5612;51.134;17.058;2023-02-28T03:59:44;28.13;;;18.30;;
2610;SDS011;5612;51.134;17.058;2023-02-28T04:02:16;24.83;;;19.23;;
2610;SDS011;5612;51.134;17.058;2023-02-28T04:04:45;25.30;;;19.23;;
2610;SDS011;5612;51.134;17.058;2023-02-28T04:07:17;25.40;;;20.23;;
2610;SDS011;5612;51.134;17.058;2023-02-28T04:09:48;30.77;;;22.00;;
2610;SDS011;5612;51.134;17.058;2023-02-28T04:12:16;24.67;;;21.80;;
2610;SDS011;5612;51.134;17.058;2023-02-28T04:14:45;28.20;;;21.87;;
2610;SDS011;5612;51.134;17.058;2023-02-28T04:17:14;34.10;;;22.00;;
2610;SDS011;5612;51.134;17.058;2023-02-28T04:19:43;29.90;;;21.77;;
2610;SDS011;5612;51.134;17.058;2023-02-28T04:22:12;25.83;;;21.37;;
2610;SDS011;5612;51.134;17.058;2023-02-28T04:24:41;26.43;;;20.53;;
2610;SDS011;5612;51.134;17.058;2023-02-28T04:27:11;25.93;;;20.07;;
2610;SDS011;5612;51.134;17.058;2023-02-28T04:29:42;31.70;;;21.00;;
2610;SDS011;5612;51.134;17.058;2023-02-28T04:32:11;26.50;;;18.67;;
2610;SDS011;5612;51.134;17.058;2023-02-28T04:34:41;30.23;;;21.70;;
2610;SDS011;5612;51.134;17.058;2023-02-28T04:37:10;27.17;;;18.27;;
2610;SDS011;5612;51.134;17.058;2023-02-28T04:39:41;27.00;;;20.20;;
2610;SDS011;5612;51.134;17.058;2023-02-28T04:42:12;28.90;;;21.70;;
2610;SDS011;5612;51.134;17.058;2023-02-28T04:44:41;24.17;;;19.10;;
2610;SDS011;5612;51.134;17.058;2023-02-28T04:47:10;28.70;;;19.30;;
2610;SDS011;5612;51.134;17.058;2023-02-28T04:49:39;24.43;;;19.20;;
2610;SDS011;5612;51.134;17.058;2023-02-28T04:52:09;29.33;;;19.90;;
2610;SDS011;5612;51.134;17.058;2023-02-28T04:54:39;25.00;;;18.80;;
2610;SDS011;5612;51.134;17.058;2023-02-28T04:57:08;25.93;;;18.53;;
2610;SDS011;5612;51.134;17.058;2023-02-28T04:59:39;23.57;;;19.50;;
2610;SDS011;5612;51.134;17.058;2023-02-28T05:02:07;28.00;;;20.30;;
2610;SDS011;5612;51.134;17.058;2023-02-28T05:04:36;30.73;;;19.60;;
2610;SDS011;5612;51.134;17.058;2023-02-28T05:07:06;28.17;;;21.10;;
2610;SDS011;5612;51.134;17.058;2023-02-28T05:09:34;31.47;;;21.23;;
2610;SDS011;5612;51.134;17.058;2023-02-28T05:12:03;24.97;;;20.60;;
2610;SDS011;5612;51.134;17.058;2023-02-28T05:14:32;28.00;;;18.73;;
2610;SDS011;5612;51.134;17.058;2023-02-28T05:17:03;26.70;;;19.10;;
2610;SDS011;5612;51.134;17.058;2023-02-28T05:19:31;25.07;;;19.67;;
2610;SDS011;5612;51.134;17.058;2023-02-28T05:22:00;25.37;;;17.83;;
2610;SDS011;5612;51.134;17.058;2023-02-28T05:24:30;20.43;;;17.53;;
2610;SDS011;5612;51.134;17.058;2023-02-28T05:26:59;25.33;;;18.90;;
2610;SDS011;5612;51.134;17.058;2023-02-28T05:29:28;22.60;;;18.13;;
2610;SDS011;5612;51.134;17.058;2023-02-28T05:31:57;27.07;;;20.60;;
2610;SDS011;5612;51.134;17.058;2023-02-28T05:34:27;24.33;;;18.20;;
2610;SDS011;5612;51.134;17.058;2023-02-28T05:36:56;22.20;;;17.10;;
2610;SDS011;5612;51.134;17.058;2023-02-28T05:39:25;25.07;;;17.60;;
2610;SDS011;5612;51.134;17.058;2023-02-28T05:41:53;22.30;;;17.97;;
2610;SDS011;5612;51.134;17.058;2023-02-28T05:44:22;24.13;;;16.60;;
2610;SDS011;5612;51.134;17.058;2023-02-28T05:46:51;25.77;;;17.87;;
2610;SDS011;5612;51.134;17.058;2023-02-28T05:49:20;19.33;;;16.87;;
2610;SDS011;5612;51.134;17.058;2023-02-28T05:51:51;23.10;;;17.57;;
2610;SDS011;5612;51.134;17.058;2023-02-28T05:54:19;24.77;;;16.87;;
2610;SDS011;5612;51.134;17.058;2023-02-28T05:56:48;20.97;;;17.23;;
2610;SDS011;5612;51.134;17.058;2023-02-28T05:59:17;25.37;;;18.27;;
2610;SDS011;5612;51.134;17.058;2023-02-28T06:01:46;16.13;;;13.87;;
2610;SDS011;5612;51.134;17.058;2023-02-28T06:04:16;17.60;;;14.10;;
2610;SDS011;5612;51.134;17.058;2023-02-28T06:07:03;20.30;;;18.00;;
2610;SDS011;5612;51.134;17.058;2023-02-28T06:09:32;22.30;;;18.13;;
2610;SDS011;5612;51.134;17.058;2023-02-28T06:12:02;24.77;;;18.23;;
2610;SDS011;5612;51.134;17.058;2023-02-28T06:14:32;29.27;;;23.03;;
2610;SDS011;5612;51.134;17.058;2023-02-28T06:17:02;31.37;;;22.80;;
2610;SDS011;5612;51.134;17.058;2023-02-28T06:19:31;33.53;;;23.37;;
2610;SDS011;5612;51.134;17.058;2023-02-28T06:22:00;34.30;;;22.97;;
2610;SDS011;5612;51.134;17.058;2023-02-28T06:24:30;31.60;;;23.13;;
2610;SDS011;5612;51.134;17.058;2023-02-28T06:26:59;29.60;;;22.10;;
2610;SDS011;5612;51.134;17.058;2023-02-28T06:29:32;28.90;;;21.90;;
2610;SDS011;5612;51.134;17.058;2023-02-28T06:32:01;28.40;;;20.93;;
2610;SDS011;5612;51.134;17.058;2023-02-28T06:34:30;24.03;;;19.97;;
2610;SDS011;5612;51.134;17.058;2023-02-28T06:37:00;25.97;;;19.50;;
2610;SDS011;5612;51.134;17.058;2023-02-28T06:39:30;27.13;;;20.30;;
2610;SDS011;5612;51.134;17.058;2023-02-28T06:41:59;22.80;;;15.90;;
2610;SDS011;5612;51.134;17.058;2023-02-28T06:44:29;18.53;;;16.00;;
2610;SDS011;5612;51.134;17.058;2023-02-28T06:47:02;21.20;;;15.87;;
2610;SDS011;5612;51.134;17.058;2023-02-28T06:49:33;16.50;;;14.20;;
2610;SDS011;5612;51.134;17.058;2023-02-28T06:52:03;20.43;;;18.23;;
2610;SDS011;5612;51.134;17.058;2023-02-28T06:54:38;17.73;;;14.97;;
2610;SDS011;5612;51.134;17.058;2023-02-28T06:57:07;19.57;;;16.07;;
2610;SDS011;5612;51.134;17.058;2023-02-28T06:59:36;17.27;;;14.37;;
2610;SDS011;5612;51.134;17.058;2023-02-28T07:02:05;15.47;;;13.77;;
2610;SDS011;5612;51.134;17.058;2023-02-28T07:04:34;16.20;;;14.07;;
2610;SDS011;5612;51.134;17.058;2023-02-28T07:07:03;15.53;;;13.53;;
2610;SDS011;5612;51.134;17.058;2023-02-28T07:09:31;20.17;;;15.37;;
2610;SDS011;5612;51.134;17.058;2023-02-28T07:12:02;17.90;;;15.60;;
2610;SDS011;5612;51.134;17.058;2023-02-28T07:14:31;16.23;;;13.67;;
2610;SDS011;5612;51.134;17.058;2023-02-28T07:17:00;15.80;;;14.07;;
2610;SDS011;5612;51.134;17.058;2023-02-28T07:19:29;17.50;;;13.93;;
2610;SDS011;5612;51.134;17.058;2023-02-28T07:21:57;20.60;;;14.93;;
2610;SDS011;5612;51.134;17.058;2023-02-28T07:24:28;15.53;;;13.90;;
2610;SDS011;5612;51.134;17.058;2023-02-28T07:26:57;14.23;;;12.80;;
2610;SDS011;5612;51.134;17.058;2023-02-28T07:29:29;14.57;;;12.97;;
2610;SDS011;5612;51.134;17.058;2023-02-28T07:31:58;14.87;;;13.43;;
2610;SDS011;5612;51.134;17.058;2023-02-28T07:34:27;13.00;;;11.77;;
2610;SDS011;5612;51.134;17.058;2023-02-28T07:36:56;14.73;;;13.33;;
2610;SDS011;5612;51.134;17.058;2023-02-28T07:39:25;17.50;;;13.47;;
2610;SDS011;5612;51.134;17.058;2023-02-28T07:41:54;11.50;;;10.40;;
2610;SDS011;5612;51.134;17.058;2023-02-28T07:44:23;12.00;;;10.80;;
2610;SDS011;5612;51.134;17.058;2023-02-28T07:46:53;13.50;;;10.30;;
2610;SDS011;5612;51.134;17.058;2023-02-28T07:49:22;12.50;;;11.40;;
2610;SDS011;5612;51.134;17.058;2023-02-28T07:51:51;11.70;;;10.60;;
2610;SDS011;5612;51.134;17.058;2023-02-28T07:54:20;10.33;;;9.40;;
2610;SDS011;5612;51.134;17.058;2023-02-28T07:56:49;11.67;;;10.57;;
2610;SDS011;5612;51.134;17.058;2023-02-28T07:59:18;10.73;;;9.93;;
2610;SDS011;5612;51.134;17.058;2023-02-28T08:01:47;10.50;;;9.50;;
2610;SDS011;5612;51.134;17.058;2023-02-28T08:04:18;10.93;;;9.97;;
2610;SDS011;5612;51.134;17.058;2023-02-28T08:06:47;11.07;;;10.07;;
2610;SDS011;5612;51.134;17.058;2023-02-28T08:09:18;10.70;;;9.70;;
2610;SDS011;5612;51.134;17.058;2023-02-28T08:11:47;9.73;;;8.80;;
2610;SDS011;5612;51.134;17.058;2023-02-28T08:14:16;9.50;;;8.50;;
2610;SDS011;5612;51.134;17.058;2023-02-28T08:16:46;9.93;;;9.03;;
2610;SDS011;5612;51.134;17.058;2023-02-28T08:19:15;8.63;;;8.00;;
2610;SDS011;5612;51.134;17.058;2023-02-28T08:21:45;11.03;;;9.77;;
2610;SDS011;5612;51.134;17.058;2023-02-28T08:24:14;9.77;;;8.77;;
2610;SDS011;5612;51.134;17.058;2023-02-28T08:26:43;9.13;;;8.37;;
2610;SDS011;5612;51.134;17.058;2023-02-28T08:29:12;10.23;;;9.37;;
2610;SDS011;5612;51.134;17.058;2023-02-28T08:31:41;9.73;;;8.90;;
2610;SDS011;5612;51.134;17.058;2023-02-28T08:34:12;9.30;;;8.60;;
2610;SDS011;5612;51.134;17.058;2023-02-28T08:36:44;10.30;;;9.50;;
2610;SDS011;5612;51.134;17.058;2023-02-28T08:39:13;10.17;;;9.37;;
2610;SDS011;5612;51.134;17.058;2023-02-28T08:41:42;10.37;;;9.47;;
2610;SDS011;5612;51.134;17.058;2023-02-28T08:44:16;9.60;;;8.70;;
2610;SDS011;5612;51.134;17.058;2023-02-28T08:46:45;10.47;;;9.57;;
2610;SDS011;5612;51.134;17.058;2023-02-28T08:49:14;9.57;;;8.73;;
2610;SDS011;5612;51.134;17.058;2023-02-28T08:51:44;8.90;;;8.13;;
2610;SDS011;5612;51.134;17.058;2023-02-28T08:54:13;10.27;;;9.47;;
2610;SDS011;5612;51.134;17.058;2023-02-28T08:56:46;9.93;;;9.03;;
2610;SDS011;5612;51.134;17.058;2023-02-28T08:59:15;7.67;;;7.10;;
2610;SDS011;5612;51.134;17.058;2023-02-28T09:01:44;7.77;;;7.13;;
2610;SDS011;5612;51.134;17.058;2023-02-28T09:04:13;7.40;;;6.80;;
2610;SDS011;5612;51.134;17.058;2023-02-28T09:06:47;9.27;;;8.40;;
2610;SDS011;5612;51.134;17.058;2023-02-28T09:09:16;9.90;;;9.10;;
2610;SDS011;5612;51.134;17.058;2023-02-28T09:11:45;7.50;;;6.90;;
2610;SDS011;5612;51.134;17.058;2023-02-28T09:14:14;8.40;;;7.70;;
2610;SDS011;5612;51.134;17.058;2023-02-28T09:16:44;7.47;;;6.77;;
2610;SDS011;5612;51.134;17.058;2023-02-28T09:19:13;9.17;;;8.27;;
2610;SDS011;5612;51.134;17.058;2023-02-28T09:21:41;8.00;;;7.30;;
2610;SDS011;5612;51.134;17.058;2023-02-28T09:24:12;7.73;;;7.13;;
2610;SDS011;5612;51.134;17.058;2023-02-28T09:26:43;8.03;;;7.30;;
2610;SDS011;5612;51.134;17.058;2023-02-28T09:29:29;7.63;;;7.13;;
2610;SDS011;5612;51.134;17.058;2023-02-28T09:31:59;11.43;;;10.43;;
2610;SDS011;5612;51.134;17.058;2023-02-28T09:34:28;8.37;;;7.77;;
2610;SDS011;5612;51.134;17.058;2023-02-28T09:36:58;9.30;;;8.60;;
2610;SDS011;5612;51.134;17.058;2023-02-28T09:39:28;7.43;;;6.93;;
2610;SDS011;5612;51.134;17.058;2023-02-28T09:41:58;6.90;;;6.40;;
2610;SDS011;5612;51.134;17.058;2023-02-28T09:44:28;8.60;;;7.80;;
2610;SDS011;5612;51.134;17.058;2023-02-28T09:47:00;9.50;;;8.53;;
2610;SDS011;5612;51.134;17.058;2023-02-28T09:49:37;8.97;;;8.17;;
2610;SDS011;5612;51.134;17.058;2023-02-28T09:52:09;7.50;;;6.80;;
2610;SDS011;5612;51.134;17.058;2023-02-28T09:54:42;7.20;;;6.70;;
2610;SDS011;5612;51.134;17.058;2023-02-28T09:57:14;6.40;;;6.00;;
2610;SDS011;5612;51.134;17.058;2023-02-28T10:02:50;8.13;;;7.43;;
2610;SDS011;5612;51.134;17.058;2023-02-28T10:05:27;8.47;;;7.73;;
2610;SDS011;5612;51.134;17.058;2023-02-28T10:08:04;9.20;;;8.50;;
2610;SDS011;5612;51.134;17.058;2023-02-28T10:10:41;9.33;;;8.53;;
2610;SDS011;5612;51.134;17.058;2023-02-28T10:13:13;7.77;;;7.13;;
2610;SDS011;5612;51.134;17.058;2023-02-28T10:15:50;8.17;;;7.57;;
2610;SDS011;5612;51.134;17.058;2023-02-28T10:18:23;8.27;;;7.67;;
2610;SDS011;5612;51.134;17.058;2023-02-28T10:20:55;9.37;;;8.57;;
2610;SDS011;5612;51.134;17.058;2023-02-28T10:23:25;8.70;;;7.90;;
2610;SDS011;5612;51.134;17.058;2023-02-28T10:25:59;7.77;;;7.07;;
2610;SDS011;5612;51.134;17.058;2023-02-28T10:28:29;9.57;;;8.70;;
2610;SDS011;5612;51.134;17.058;2023-02-28T10:30:59;8.13;;;7.53;;
2610;SDS011;5612;51.134;17.058;2023-02-28T10:33:29;9.57;;;8.50;;
2610;SDS011;5612;51.134;17.058;2023-02-28T10:36:00;8.73;;;8.03;;
2610;SDS011;5612;51.134;17.058;2023-02-28T10:38:32;9.10;;;8.50;;
2610;SDS011;5612;51.134;17.058;2023-02-28T10:41:05;9.27;;;8.57;;
2610;SDS011;5612;51.134;17.058;2023-02-28T10:43:35;10.37;;;9.47;;
2610;SDS011;5612;51.134;17.058;2023-02-28T10:46:10;9.93;;;9.13;;
2610;SDS011;5612;51.134;17.058;2023-02-28T10:48:50;10.37;;;8.53;;
2610;SDS011;5612;51.134;17.058;2023-02-28T10:51:34;9.77;;;8.90;;
2610;SDS011;5612;51.134;17.058;2023-02-28T10:54:04;9.70;;;9.00;;
2610;SDS011;5612;51.134;17.058;2023-02-28T10:56:43;9.23;;;8.53;;
2610;SDS011;5612;51.134;17.058;2023-02-28T10:59:26;9.13;;;8.30;;
2610;SDS011;5612;51.134;17.058;2023-02-28T11:01:56;8.63;;;7.93;;
2610;SDS011;5612;51.134;17.058;2023-02-28T11:04:32;8.70;;;7.77;;
2610;SDS011;5612;51.134;17.058;2023-02-28T11:07:06;9.30;;;8.60;;
2610;SDS011;5612;51.134;17.058;2023-02-28T11:09:51;7.87;;;7.17;;
2610;SDS011;5612;51.134;17.058;2023-02-28T11:12:25;8.37;;;7.70;;
2610;SDS011;5612;51.134;17.058;2023-02-28T11:15:00;8.20;;;7.50;;
2610;SDS011;5612;51.134;17.058;2023-02-28T11:17:31;8.80;;;7.87;;
2610;SDS011;5612;51.134;17.058;2023-02-28T11:20:02;8.70;;;7.90;;
2610;SDS011;5612;51.134;17.058;2023-02-28T11:22:35;9.23;;;8.50;;
2610;SDS011;5612;51.134;17.058;2023-02-28T11:25:07;8.40;;;7.80;;
2610;SDS011;5612;51.134;17.058;2023-02-28T11:27:47;9.03;;;8.23;;
2610;SDS011;5612;51.134;17.058;2023-02-28T11:30:24;7.93;;;7.33;;
2610;SDS011;5612;51.134;17.058;2023-02-28T11:32:58;7.50;;;6.90;;
2610;SDS011;5612;51.134;17.058;2023-02-28T11:35:28;9.03;;;8.20;;
2610;SDS011;5612;51.134;17.058;2023-02-28T11:38:01;9.40;;;8.70;;
2610;SDS011;5612;51.134;17.058;2023-02-28T11:40:36;9.37;;;8.63;;
2610;SDS011;5612;51.134;17.058;2023-02-28T11:43:18;9.80;;;9.00;;
2610;SDS011;5612;51.134;17.058;2023-02-28T11:46:03;8.67;;;7.97;;
2610;SDS011;5612;51.134;17.058;2023-02-28T11:48:40;8.47;;;7.77;;
2610;SDS011;5612;51.134;17.058;2023-02-28T11:51:19;9.40;;;8.60;;
2610;SDS011;5612;51.134;17.058;2023-02-28T11:53:58;9.20;;;7.80;;
2610;SDS011;5612;51.134;17.058;2023-02-28T11:57:08;8.80;;;8.10;;
2610;SDS011;5612;51.134;17.058;2023-02-28T11:59:54;9.50;;;8.80;;
2610;SDS011;5612;51.134;17.058;2023-02-28T12:02:31;8.77;;;8.07;;
2610;SDS011;5612;51.134;17.058;2023-02-28T12:05:18;9.67;;;8.87;;
2610;SDS011;5612;51.134;17.058;2023-02-28T12:07:58;9.80;;;9.00;;
2610;SDS011;5612;51.134;17.058;2023-02-28T12:10:37;10.63;;;9.63;;
2610;SDS011;5612;51.134;17.058;2023-02-28T12:13:21;10.03;;;9.20;;
2610;SDS011;5612;51.134;17.058;2023-02-28T12:16:03;11.70;;;10.50;;
2610;SDS011;5612;51.134;17.058;2023-02-28T12:18:50;12.50;;;11.43;;
2610;SDS011;5612;51.134;17.058;2023-02-28T12:21:31;11.57;;;10.47;;
2610;SDS011;5612;51.134;17.058;2023-02-28T12:27:15;12.90;;;11.90;;
2610;SDS011;5612;51.134;17.058;2023-02-28T12:29:49;12.37;;;11.30;;
2610;SDS011;5612;51.134;17.058;2023-02-28T12:32:23;11.47;;;10.57;;
2610;SDS011;5612;51.134;17.058;2023-02-28T12:35:00;12.50;;;11.33;;
2610;SDS011;5612;51.134;17.058;2023-02-28T12:37:33;11.10;;;10.10;;
2610;SDS011;5612;51.134;17.058;2023-02-28T12:40:09;12.30;;;11.17;;
2610;SDS011;5612;51.134;17.058;2023-02-28T12:42:41;11.83;;;10.90;;
2610;SDS011;5612;51.134;17.058;2023-02-28T12:45:15;11.30;;;10.30;;
2610;SDS011;5612;51.134;17.058;2023-02-28T12:47:50;11.47;;;10.50;;
2610;SDS011;5612;51.134;17.058;2023-02-28T12:50:25;11.33;;;10.30;;
2610;SDS011;5612;51.134;17.058;2023-02-28T12:52:58;10.83;;;9.70;;
2610;SDS011;5612;51.134;17.058;2023-02-28T12:55:33;12.53;;;11.43;;
2610;SDS011;5612;51.134;17.058;2023-02-28T12:58:08;11.30;;;10.13;;
2610;SDS011;5612;51.134;17.058;2023-02-28T13:00:46;12.50;;;11.40;;
2610;SDS011;5612;51.134;17.058;2023-02-28T13:06:27;12.07;;;10.20;;
2610;SDS011;5612;51.134;17.058;2023-02-28T13:09:04;13.67;;;12.23;;
2610;SDS011;5612;51.134;17.058;2023-02-28T13:11:40;11.93;;;10.73;;
2610;SDS011;5612;51.134;17.058;2023-02-28T13:14:20;24.13;;;21.63;;
2610;SDS011;5612;51.134;17.058;2023-02-28T13:16:55;12.70;;;11.53;;
2610;SDS011;5612;51.134;17.058;2023-02-28T13:19:29;11.60;;;10.50;;
2610;SDS011;5612;51.134;17.058;2023-02-28T13:22:00;11.10;;;10.10;;
2610;SDS011;5612;51.134;17.058;2023-02-28T13:24:37;11.77;;;10.67;;
2610;SDS011;5612;51.134;17.058;2023-02-28T13:33:21;11.73;;;10.53;;
2610;SDS011;5612;51.134;17.058;2023-02-28T13:38:56;12.93;;;11.57;;
2610;SDS011;5612;51.134;17.058;2023-02-28T13:41:41;11.77;;;10.60;;
2610;SDS011;5612;51.134;17.058;2023-02-28T13:44:12;11.30;;;10.20;;
2610;SDS011;5612;51.134;17.058;2023-02-28T13:49:49;10.83;;;9.97;;
2610;SDS011;5612;51.134;17.058;2023-02-28T13:52:25;11.53;;;10.30;;
2610;SDS011;5612;51.134;17.058;2023-02-28T13:54:59;11.57;;;10.50;;
2610;SDS011;5612;51.134;17.058;2023-02-28T13:57:56;12.07;;;10.97;;
2610;SDS011;5612;51.134;17.058;2023-02-28T14:00:39;11.53;;;10.40;;
2610;SDS011;5612;51.134;17.058;2023-02-28T14:03:22;13.37;;;11.97;;
2610;SDS011;5612;51.134;17.058;2023-02-28T14:06:10;12.73;;;11.43;;
2610;SDS011;5612;51.134;17.058;2023-02-28T14:08:50;14.47;;;13.00;;
2610;SDS011;5612;51.134;17.058;2023-02-28T14:11:24;12.23;;;11.13;;
2610;SDS011;5612;51.134;17.058;2023-02-28T14:13:58;12.53;;;11.47;;
2610;SDS011;5612;51.134;17.058;2023-02-28T14:16:28;12.73;;;11.37;;
2610;SDS011;5612;51.134;17.058;2023-02-28T14:19:09;12.90;;;11.60;;
2610;SDS011;5612;51.134;17.058;2023-02-28T14:21:47;12.90;;;11.60;;
2610;SDS011;5612;51.134;17.058;2023-02-28T14:24:38;12.87;;;11.67;;
2610;SDS011;5612;51.134;17.058;2023-02-28T14:33:18;13.20;;;12.00;;
2610;SDS011;5612;51.134;17.058;2023-02-28T14:36:00;14.03;;;12.67;;
2610;SDS011;5612;51.134;17.058;2023-02-28T14:38:35;14.03;;;12.00;;
2610;SDS011;5612;51.134;17.058;2023-02-28T14:41:20;14.03;;;12.63;;
2610;SDS011;5612;51.134;17.058;2023-02-28T14:43:51;14.50;;;13.10;;
2610;SDS011;5612;51.134;17.058;2023-02-28T14:46:23;15.80;;;14.03;;
2610;SDS011;5612;51.134;17.058;2023-02-28T14:48:57;15.40;;;14.10;;
2610;SDS011;5612;51.134;17.058;2023-02-28T14:51:26;13.60;;;12.30;;
2610;SDS011;5612;51.134;17.058;2023-02-28T14:53:57;11.90;;;10.90;;
2610;SDS011;5612;51.134;17.058;2023-02-28T14:56:30;13.53;;;12.33;;
2610;SDS011;5612;51.134;17.058;2023-02-28T14:59:05;12.50;;;11.10;;
2610;SDS011;5612;51.134;17.058;2023-02-28T15:01:53;13.20;;;11.00;;
2610;SDS011;5612;51.134;17.058;2023-02-28T15:04:53;13.20;;;11.63;;
2610;SDS011;5612;51.134;17.058;2023-02-28T15:07:24;11.17;;;10.10;;
2610;SDS011;5612;51.134;17.058;2023-02-28T15:12:57;12.80;;;11.23;;
2610;SDS011;5612;51.134;17.058;2023-02-28T15:15:29;13.00;;;11.80;;
2610;SDS011;5612;51.134;17.058;2023-02-28T15:18:30;11.83;;;10.60;;
2610;SDS011;5612;51.134;17.058;2023-02-28T15:21:06;11.93;;;10.83;;
2610;SDS011;5612;51.134;17.058;2023-02-28T15:23:37;11.93;;;10.60;;
2610;SDS011;5612;51.134;17.058;2023-02-28T15:26:10;11.20;;;10.10;;
2610;SDS011;5612;51.134;17.058;2023-02-28T15:28:45;11.50;;;10.40;;
2610;SDS011;5612;51.134;17.058;2023-02-28T15:31:19;13.50;;;12.20;;
2610;SDS011;5612;51.134;17.058;2023-02-28T15:34:02;16.53;;;15.03;;
2610;SDS011;5612;51.134;17.058;2023-02-28T15:36:41;13.40;;;12.13;;
2610;SDS011;5612;51.134;17.058;2023-02-28T15:39:18;10.83;;;9.73;;
2610;SDS011;5612;51.134;17.058;2023-02-28T15:41:50;11.07;;;9.97;;
2610;SDS011;5612;51.134;17.058;2023-02-28T15:44:27;10.40;;;9.50;;
2610;SDS011;5612;51.134;17.058;2023-02-28T15:47:03;10.40;;;9.53;;
2610;SDS011;5612;51.134;17.058;2023-02-28T15:49:38;11.33;;;10.27;;